sensor_id;sensor_type;location;lat;lon;timestamp;pressure;altitude;pressure_sealevel;temperature;humidity
27587;BME280;15019;49.002;8.420;2022-08-04T00:00:16;99859.22;;;25.83;56.14
27587;BME280;15019;49.002;8.420;2022-08-04T00:10:27;99853.75;;;25.99;55.07
27587;BME280;15019;49.002;8.420;2022-08-04T00:12:55;99850.22;;;26.00;55.21
27587;BME280;15019;49.002;8.420;2022-08-04T00:15:22;99849.38;;;26.00;54.61
27587;BME280;15019;49.002;8.420;2022-08-04T00:17:59;99853.84;;;25.98;54.80
27587;BME280;15019;49.002;8.420;2022-08-04T00:20:29;99848.19;;;25.93;55.15
27587;BME280;15019;49.002;8.420;2022-08-04T00:22:56;99846.31;;;25.95;54.80
27587;BME280;15019;49.002;8.420;2022-08-04T00:25:21;99851.50;;;25.95;54.88
27587;BME280;15019;49.002;8.420;2022-08-04T00:27:47;99846.16;;;25.96;54.81
27587;BME280;15019;49.002;8.420;2022-08-04T00:30:13;99845.56;;;25.93;54.83
27587;BME280;15019;49.002;8.420;2022-08-04T00:32:40;99853.25;;;25.94;54.42
27587;BME280;15019;49.002;8.420;2022-08-04T00:35:07;99851.50;;;25.95;54.19
27587;BME280;15019;49.002;8.420;2022-08-04T00:37:34;99852.44;;;25.94;54.45
27587;BME280;15019;49.002;8.420;2022-08-04T00:40:02;99854.19;;;25.93;54.14
27587;BME280;15019;49.002;8.420;2022-08-04T00:42:40;99852.53;;;25.92;54.04
27587;BME280;15019;49.002;8.420;2022-08-04T00:49:14;99859.88;;;25.74;58.38
27587;BME280;15019;49.002;8.420;2022-08-04T00:51:35;99855.69;;;25.59;56.19
27587;BME280;15019;49.002;8.420;2022-08-04T00:54:28;99853.03;;;25.61;55.60
27587;BME280;15019;49.002;8.420;2022-08-04T00:57:02;99850.72;;;25.69;55.55
27587;BME280;15019;49.002;8.420;2022-08-04T01:08:50;99856.72;;;25.44;56.07
27587;BME280;15019;49.002;8.420;2022-08-04T01:14:09;99855.28;;;25.40;56.03
27587;BME280;15019;49.002;8.420;2022-08-04T01:16:48;99856.97;;;25.41;56.16
27587;BME280;15019;49.002;8.420;2022-08-04T01:30:18;99857.53;;;24.94;62.02
27587;BME280;15019;49.002;8.420;2022-08-04T01:32:47;99844.84;;;24.76;61.80
27587;BME280;15019;49.002;8.420;2022-08-04T01:35:29;99847.50;;;24.62;65.29
27587;BME280;15019;49.002;8.420;2022-08-04T01:38:06;99853.69;;;24.47;62.09
27587;BME280;15019;49.002;8.420;2022-08-04T01:40:36;99849.63;;;24.43;63.74
27587;BME280;15019;49.002;8.420;2022-08-04T01:43:02;99848.06;;;24.40;63.92
27587;BME280;15019;49.002;8.420;2022-08-04T01:45:29;99843.06;;;24.37;64.49
27587;BME280;15019;49.002;8.420;2022-08-04T01:47:55;99846.16;;;24.30;67.30
27587;BME280;15019;49.002;8.420;2022-08-04T01:50:21;99849.06;;;24.25;66.43
27587;BME280;15019;49.002;8.420;2022-08-04T01:52:49;99844.06;;;24.22;65.14
27587;BME280;15019;49.002;8.420;2022-08-04T01:55:16;99847.38;;;24.24;65.28
27587;BME280;15019;49.002;8.420;2022-08-04T01:57:47;99850.91;;;24.23;63.50
27587;BME280;15019;49.002;8.420;2022-08-04T02:00:18;99850.91;;;24.23;64.45
27587;BME280;15019;49.002;8.420;2022-08-04T02:02:44;99851.63;;;24.11;65.17
27587;BME280;15019;49.002;8.420;2022-08-04T02:05:11;99854.81;;;24.02;68.65
27587;BME280;15019;49.002;8.420;2022-08-04T02:10:27;99854.31;;;23.68;69.48
27587;BME280;15019;49.002;8.420;2022-08-04T02:15:30;99851.91;;;23.51;68.42
27587;BME280;15019;49.002;8.420;2022-08-04T02:20:37;99850.88;;;23.54;71.04
27587;BME280;15019;49.002;8.420;2022-08-04T02:23:09;99846.88;;;23.48;71.03
27587;BME280;15019;49.002;8.420;2022-08-04T02:25:57;99842.44;;;23.36;71.94
27587;BME280;15019;49.002;8.420;2022-08-04T02:28:32;99850.13;;;23.38;70.41
27587;BME280;15019;49.002;8.420;2022-08-04T02:33:44;99848.19;;;23.41;71.05
27587;BME280;15019;49.002;8.420;2022-08-04T02:36:19;99850.28;;;23.34;71.81
27587;BME280;15019;49.002;8.420;2022-08-04T02:41:15;99846.88;;;23.20;72.30
27587;BME280;15019;49.002;8.420;2022-08-04T02:43:41;99847.75;;;23.05;73.23
27587;BME280;15019;49.002;8.420;2022-08-04T02:46:07;99846.47;;;22.97;72.90
27587;BME280;15019;49.002;8.420;2022-08-04T02:48:35;99845.50;;;22.84;73.40
27587;BME280;15019;49.002;8.420;2022-08-04T02:51:02;99837.38;;;22.76;73.99
27587;BME280;15019;49.002;8.420;2022-08-04T02:53:29;99839.34;;;22.71;74.67
27587;BME280;15019;49.002;8.420;2022-08-04T02:55:57;99843.38;;;22.61;75.45
27587;BME280;15019;49.002;8.420;2022-08-04T02:58:30;99846.22;;;22.56;76.36
27587;BME280;15019;49.002;8.420;2022-08-04T03:00:58;99852.56;;;22.51;76.24
27587;BME280;15019;49.002;8.420;2022-08-04T03:03:33;99854.59;;;22.46;76.53
27587;BME280;15019;49.002;8.420;2022-08-04T03:18:05;99848.22;;;22.36;77.89
27587;BME280;15019;49.002;8.420;2022-08-04T03:20:32;99843.19;;;22.34;79.67
27587;BME280;15019;49.002;8.420;2022-08-04T03:23:59;99846.09;;;22.28;78.35
27587;BME280;15019;49.002;8.420;2022-08-04T03:26:35;99846.69;;;22.17;79.06
27587;BME280;15019;49.002;8.420;2022-08-04T03:35:35;99854.09;;;22.08;80.31
27587;BME280;15019;49.002;8.420;2022-08-04T03:49:44;99857.03;;;22.02;81.92
27587;BME280;15019;49.002;8.420;2022-08-04T03:55:35;99857.38;;;21.94;82.10
27587;BME280;15019;49.002;8.420;2022-08-04T03:58:28;99853.88;;;21.95;83.22
27587;BME280;15019;49.002;8.420;2022-08-04T04:03:43;99856.06;;;21.87;81.58
27587;BME280;15019;49.002;8.420;2022-08-04T04:06:58;99858.78;;;21.84;82.17
27587;BME280;15019;49.002;8.420;2022-08-04T04:15:17;99861.72;;;21.78;83.16
27587;BME280;15019;49.002;8.420;2022-08-04T04:18:31;99857.97;;;21.83;85.27
27587;BME280;15019;49.002;8.420;2022-08-04T04:21:15;99860.94;;;21.76;84.29
27587;BME280;15019;49.002;8.420;2022-08-04T04:26:31;99872.03;;;21.78;84.66
27587;BME280;15019;49.002;8.420;2022-08-04T04:37:53;99871.88;;;21.81;85.39
27587;BME280;15019;49.002;8.420;2022-08-04T04:54:36;99883.88;;;21.82;84.52
27587;BME280;15019;49.002;8.420;2022-08-04T04:57:20;99879.63;;;21.81;83.31
27587;BME280;15019;49.002;8.420;2022-08-04T04:59:54;99892.03;;;21.90;83.68
27587;BME280;15019;49.002;8.420;2022-08-04T05:02:46;99890.03;;;21.95;83.55
27587;BME280;15019;49.002;8.420;2022-08-04T05:05:41;99887.09;;;22.03;84.45
27587;BME280;15019;49.002;8.420;2022-08-04T05:13:57;99889.25;;;22.42;82.55
27587;BME280;15019;49.002;8.420;2022-08-04T05:16:35;99890.75;;;22.46;80.82
27587;BME280;15019;49.002;8.420;2022-08-04T05:19:23;99891.25;;;22.52;81.96
27587;BME280;15019;49.002;8.420;2022-08-04T05:22:03;99898.22;;;22.66;81.28
27587;BME280;15019;49.002;8.420;2022-08-04T05:24:33;99901.06;;;22.77;81.26
27587;BME280;15019;49.002;8.420;2022-08-04T05:27:07;99910.91;;;22.86;80.88
27587;BME280;15019;49.002;8.420;2022-08-04T05:29:37;99915.38;;;22.98;80.97
27587;BME280;15019;49.002;8.420;2022-08-04T05:32:11;99911.50;;;23.06;80.58
27587;BME280;15019;49.002;8.420;2022-08-04T05:34:41;99907.63;;;23.13;79.83
27587;BME280;15019;49.002;8.420;2022-08-04T05:37:10;99908.59;;;23.26;82.42
27587;BME280;15019;49.002;8.420;2022-08-04T05:39:44;99918.06;;;23.41;81.38
27587;BME280;15019;49.002;8.420;2022-08-04T05:42:10;99918.44;;;23.49;80.49
27587;BME280;15019;49.002;8.420;2022-08-04T05:44:37;99918.66;;;23.60;79.39
27587;BME280;15019;49.002;8.420;2022-08-04T05:47:04;99922.63;;;23.66;80.63
27587;BME280;15019;49.002;8.420;2022-08-04T05:49:31;99925.50;;;23.90;83.70
27587;BME280;15019;49.002;8.420;2022-08-04T05:52:00;99924.94;;;23.99;84.04
27587;BME280;15019;49.002;8.420;2022-08-04T05:54:26;99918.56;;;24.04;81.71
27587;BME280;15019;49.002;8.420;2022-08-04T05:56:53;99923.78;;;24.17;78.41
27587;BME280;15019;49.002;8.420;2022-08-04T05:59:20;99926.38;;;24.31;79.53
27587;BME280;15019;49.002;8.420;2022-08-04T06:01:47;99922.28;;;24.41;77.94
27587;BME280;15019;49.002;8.420;2022-08-04T06:04:13;99924.09;;;24.54;78.00
27587;BME280;15019;49.002;8.420;2022-08-04T06:06:41;99925.50;;;24.72;74.03
27587;BME280;15019;49.002;8.420;2022-08-04T06:09:07;99924.72;;;24.84;74.32
27587;BME280;15019;49.002;8.420;2022-08-04T06:11:33;99929.66;;;25.01;73.91
27587;BME280;15019;49.002;8.420;2022-08-04T06:14:02;99929.47;;;25.04;70.49
27587;BME280;15019;49.002;8.420;2022-08-04T06:16:36;99927.66;;;25.19;73.13
27587;BME280;15019;49.002;8.420;2022-08-04T06:19:08;99925.97;;;25.05;66.05
27587;BME280;15019;49.002;8.420;2022-08-04T06:21:38;99928.25;;;25.23;67.93
27587;BME280;15019;49.002;8.420;2022-08-04T06:24:07;99921.31;;;25.36;67.10
27587;BME280;15019;49.002;8.420;2022-08-04T06:26:34;99929.31;;;25.58;69.24
27587;BME280;15019;49.002;8.420;2022-08-04T06:29:02;99928.00;;;25.78;68.12
27587;BME280;15019;49.002;8.420;2022-08-04T06:31:28;99930.50;;;25.79;68.23
27587;BME280;15019;49.002;8.420;2022-08-04T06:33:55;99924.84;;;25.85;66.39
27587;BME280;15019;49.002;8.420;2022-08-04T06:36:21;99934.19;;;26.01;67.75
27587;BME280;15019;49.002;8.420;2022-08-04T06:38:46;99935.22;;;26.11;67.25
27587;BME280;15019;49.002;8.420;2022-08-04T06:41:12;99941.44;;;26.21;65.32
27587;BME280;15019;49.002;8.420;2022-08-04T06:43:37;99935.59;;;26.17;65.79
27587;BME280;15019;49.002;8.420;2022-08-04T06:46:04;99940.81;;;26.30;65.66
27587;BME280;15019;49.002;8.420;2022-08-04T06:48:30;99942.81;;;26.50;65.83
27587;BME280;15019;49.002;8.420;2022-08-04T06:50:57;99935.19;;;26.84;64.41
27587;BME280;15019;49.002;8.420;2022-08-04T06:53:25;99933.53;;;26.83;63.55
27587;BME280;15019;49.002;8.420;2022-08-04T06:55:51;99941.94;;;27.10;60.38
27587;BME280;15019;49.002;8.420;2022-08-04T06:58:19;99941.03;;;27.33;61.75
27587;BME280;15019;49.002;8.420;2022-08-04T07:00:46;99941.63;;;27.26;60.89
27587;BME280;15019;49.002;8.420;2022-08-04T07:03:14;99937.94;;;27.17;58.53
27587;BME280;15019;49.002;8.420;2022-08-04T07:05:40;99936.81;;;27.32;57.27
27587;BME280;15019;49.002;8.420;2022-08-04T07:08:06;99939.94;;;27.82;55.78
27587;BME280;15019;49.002;8.420;2022-08-04T07:10:32;99945.44;;;28.99;53.52
27587;BME280;15019;49.002;8.420;2022-08-04T07:12:59;99949.19;;;29.06;55.86
27587;BME280;15019;49.002;8.420;2022-08-04T07:15:25;99939.78;;;28.83;55.71
27587;BME280;15019;49.002;8.420;2022-08-04T07:17:52;99942.66;;;29.11;52.79
27587;BME280;15019;49.002;8.420;2022-08-04T07:20:17;99942.97;;;29.18;51.39
27587;BME280;15019;49.002;8.420;2022-08-04T07:22:43;99944.44;;;29.53;51.26
27587;BME280;15019;49.002;8.420;2022-08-04T07:25:10;99934.06;;;29.41;52.16
27587;BME280;15019;49.002;8.420;2022-08-04T07:27:35;99945.50;;;29.29;53.81
27587;BME280;15019;49.002;8.420;2022-08-04T07:30:02;99942.44;;;29.24;50.90
27587;BME280;15019;49.002;8.420;2022-08-04T07:32:30;99952.66;;;29.78;51.12
27587;BME280;15019;49.002;8.420;2022-08-04T07:34:56;99943.25;;;30.37;52.50
27587;BME280;15019;49.002;8.420;2022-08-04T07:37:22;99948.56;;;30.66;47.19
27587;BME280;15019;49.002;8.420;2022-08-04T07:39:48;99948.88;;;30.32;47.58
27587;BME280;15019;49.002;8.420;2022-08-04T07:42:17;99947.31;;;31.18;46.32
27587;BME280;15019;49.002;8.420;2022-08-04T07:44:44;99956.75;;;32.31;45.36
27587;BME280;15019;49.002;8.420;2022-08-04T07:47:09;99957.19;;;31.90;45.10
27587;BME280;15019;49.002;8.420;2022-08-04T07:49:35;99962.59;;;32.25;42.14
27587;BME280;15019;49.002;8.420;2022-08-04T07:52:01;99964.25;;;32.26;43.05
27587;BME280;15019;49.002;8.420;2022-08-04T07:54:27;99962.84;;;32.50;42.18
27587;BME280;15019;49.002;8.420;2022-08-04T07:56:52;99965.81;;;32.82;43.77
27587;BME280;15019;49.002;8.420;2022-08-04T07:59:18;99958.78;;;34.12;42.14
27587;BME280;15019;49.002;8.420;2022-08-04T08:01:45;99959.75;;;34.69;38.57
27587;BME280;15019;49.002;8.420;2022-08-04T08:04:11;99966.56;;;35.12;38.49
27587;BME280;15019;49.002;8.420;2022-08-04T08:06:37;99955.78;;;33.73;37.88
27587;BME280;15019;49.002;8.420;2022-08-04T08:09:13;99962.44;;;34.77;38.18
27587;BME280;15019;49.002;8.420;2022-08-04T08:11:40;99958.56;;;35.69;35.39
27587;BME280;15019;49.002;8.420;2022-08-04T08:14:06;99961.25;;;35.45;36.91
27587;BME280;15019;49.002;8.420;2022-08-04T08:16:32;99946.63;;;33.51;36.79
27587;BME280;15019;49.002;8.420;2022-08-04T08:18:57;99954.06;;;33.82;38.12
27587;BME280;15019;49.002;8.420;2022-08-04T08:21:24;99950.81;;;32.92;37.27
27587;BME280;15019;49.002;8.420;2022-08-04T08:23:49;99953.19;;;34.15;37.75
27587;BME280;15019;49.002;8.420;2022-08-04T08:26:15;99965.13;;;35.89;36.01
27587;BME280;15019;49.002;8.420;2022-08-04T08:28:41;99946.06;;;34.41;35.00
27587;BME280;15019;49.002;8.420;2022-08-04T08:31:07;99963.09;;;35.36;33.54
27587;BME280;15019;49.002;8.420;2022-08-04T08:33:33;99959.09;;;35.56;37.64
27587;BME280;15019;49.002;8.420;2022-08-04T08:36:25;99961.50;;;36.52;37.71
27587;BME280;15019;49.002;8.420;2022-08-04T08:39:04;99964.44;;;35.95;38.23
27587;BME280;15019;49.002;8.420;2022-08-04T08:46:57;99965.13;;;36.20;36.77
27587;BME280;15019;49.002;8.420;2022-08-04T09:00:37;99958.50;;;37.97;34.67
27587;BME280;15019;49.002;8.420;2022-08-04T09:05:59;99957.97;;;37.58;32.87
27587;BME280;15019;49.002;8.420;2022-08-04T09:08:53;99955.38;;;36.29;33.97
27587;BME280;15019;49.002;8.420;2022-08-04T09:11:29;99955.78;;;37.09;32.62
27587;BME280;15019;49.002;8.420;2022-08-04T09:14:19;99957.50;;;37.54;32.60
27587;BME280;15019;49.002;8.420;2022-08-04T09:17:01;99954.69;;;37.26;33.63
27587;BME280;15019;49.002;8.420;2022-08-04T09:19:41;99953.13;;;38.20;36.02
27587;BME280;15019;49.002;8.420;2022-08-04T09:22:32;99953.50;;;37.88;29.47
27587;BME280;15019;49.002;8.420;2022-08-04T09:25:21;99955.22;;;38.89;29.07
27587;BME280;15019;49.002;8.420;2022-08-04T09:27:56;99958.00;;;39.02;28.62
27587;BME280;15019;49.002;8.420;2022-08-04T09:30:38;99950.53;;;38.48;28.10
27587;BME280;15019;49.002;8.420;2022-08-04T09:35:59;99942.00;;;38.10;29.64
27587;BME280;15019;49.002;8.420;2022-08-04T09:38:48;99950.84;;;38.53;28.22
27587;BME280;15019;49.002;8.420;2022-08-04T09:41:19;99957.44;;;39.34;30.17
27587;BME280;15019;49.002;8.420;2022-08-04T09:46:52;99954.09;;;39.53;26.82
27587;BME280;15019;49.002;8.420;2022-08-04T09:49:30;99946.91;;;38.70;27.87
27587;BME280;15019;49.002;8.420;2022-08-04T09:52:11;99950.66;;;38.97;28.05
27587;BME280;15019;49.002;8.420;2022-08-04T09:58:13;99945.03;;;38.64;29.25
27587;BME280;15019;49.002;8.420;2022-08-04T10:00:50;99944.28;;;39.88;28.04
27587;BME280;15019;49.002;8.420;2022-08-04T10:03:18;99934.16;;;38.80;26.71
27587;BME280;15019;49.002;8.420;2022-08-04T10:14:01;99929.69;;;39.37;27.96
27587;BME280;15019;49.002;8.420;2022-08-04T10:19:33;99929.25;;;39.33;27.65
27587;BME280;15019;49.002;8.420;2022-08-04T10:22:20;99934.66;;;39.46;27.25
27587;BME280;15019;49.002;8.420;2022-08-04T10:27:40;99919.03;;;40.12;27.33
27587;BME280;15019;49.002;8.420;2022-08-04T10:30:09;99922.44;;;40.80;26.17
27587;BME280;15019;49.002;8.420;2022-08-04T10:35:17;99916.28;;;41.00;25.60
27587;BME280;15019;49.002;8.420;2022-08-04T10:38:09;99921.63;;;40.73;25.98
27587;BME280;15019;49.002;8.420;2022-08-04T10:40:42;99923.16;;;40.21;26.74
27587;BME280;15019;49.002;8.420;2022-08-04T10:46:31;99907.22;;;39.74;29.36
27587;BME280;15019;49.002;8.420;2022-08-04T10:49:05;99910.72;;;40.29;27.13
27587;BME280;15019;49.002;8.420;2022-08-04T10:51:43;99905.78;;;40.26;27.04
27587;BME280;15019;49.002;8.420;2022-08-04T10:54:17;99907.25;;;40.61;24.74
27587;BME280;15019;49.002;8.420;2022-08-04T10:56:48;99902.09;;;39.66;25.39
27587;BME280;15019;49.002;8.420;2022-08-04T10:59:31;99906.94;;;39.49;25.94
27587;BME280;15019;49.002;8.420;2022-08-04T11:02:04;99912.97;;;40.58;25.36
27587;BME280;15019;49.002;8.420;2022-08-04T11:04:48;99908.88;;;40.49;28.01
27587;BME280;15019;49.002;8.420;2022-08-04T11:07:16;99902.75;;;40.42;27.18
27587;BME280;15019;49.002;8.420;2022-08-04T11:09:43;99898.88;;;41.23;24.39
27587;BME280;15019;49.002;8.420;2022-08-04T11:12:16;99908.09;;;40.55;24.67
27587;BME280;15019;49.002;8.420;2022-08-04T11:15:03;99906.47;;;40.67;24.80
27587;BME280;15019;49.002;8.420;2022-08-04T11:17:34;99901.59;;;40.77;26.29
27587;BME280;15019;49.002;8.420;2022-08-04T11:20:16;99898.69;;;41.12;24.85
27587;BME280;15019;49.002;8.420;2022-08-04T11:22:49;99902.72;;;41.34;24.44
27587;BME280;15019;49.002;8.420;2022-08-04T11:25:25;99899.47;;;40.40;23.79
27587;BME280;15019;49.002;8.420;2022-08-04T11:30:56;99899.44;;;39.66;24.41
27587;BME280;15019;49.002;8.420;2022-08-04T11:33:36;99901.75;;;40.43;24.92
27587;BME280;15019;49.002;8.420;2022-08-04T11:36:07;99897.84;;;40.58;24.94
27587;BME280;15019;49.002;8.420;2022-08-04T11:38:58;99897.13;;;39.97;24.29
27587;BME280;15019;49.002;8.420;2022-08-04T11:41:38;99897.94;;;39.15;25.62
27587;BME280;15019;49.002;8.420;2022-08-04T11:44:05;99890.13;;;38.58;24.72
27587;BME280;15019;49.002;8.420;2022-08-04T11:46:42;99887.94;;;38.26;25.24
27587;BME280;15019;49.002;8.420;2022-08-04T11:49:23;99886.97;;;37.91;24.91
27587;BME280;15019;49.002;8.420;2022-08-04T11:51:51;99879.59;;;38.43;26.05
27587;BME280;15019;49.002;8.420;2022-08-04T11:54:20;99890.06;;;39.35;24.57
27587;BME280;15019;49.002;8.420;2022-08-04T11:56:46;99883.69;;;39.58;26.08
27587;BME280;15019;49.002;8.420;2022-08-04T11:59:11;99872.78;;;39.87;24.47
27587;BME280;15019;49.002;8.420;2022-08-04T12:05:13;99873.88;;;39.51;24.29
27587;BME280;15019;49.002;8.420;2022-08-04T12:07:43;99873.16;;;39.02;23.96
27587;BME280;15019;49.002;8.420;2022-08-04T12:13:20;99865.53;;;38.64;23.74
27587;BME280;15019;49.002;8.420;2022-08-04T12:15:54;99863.59;;;38.37;24.80
27587;BME280;15019;49.002;8.420;2022-08-04T12:18:26;99861.03;;;38.65;24.57
27587;BME280;15019;49.002;8.420;2022-08-04T12:20:57;99862.34;;;38.75;24.09
27587;BME280;15019;49.002;8.420;2022-08-04T12:23:29;99853.34;;;38.27;22.78
27587;BME280;15019;49.002;8.420;2022-08-04T12:26:01;99858.59;;;38.21;22.81
27587;BME280;15019;49.002;8.420;2022-08-04T12:28:31;99864.81;;;38.77;22.73
27587;BME280;15019;49.002;8.420;2022-08-04T12:31:06;99852.84;;;39.15;23.90
27587;BME280;15019;49.002;8.420;2022-08-04T12:33:48;99861.16;;;39.06;21.84
27587;BME280;15019;49.002;8.420;2022-08-04T12:36:46;99851.47;;;38.70;22.84
27587;BME280;15019;49.002;8.420;2022-08-04T12:39:16;99852.50;;;38.27;23.11
27587;BME280;15019;49.002;8.420;2022-08-04T12:41:51;99846.19;;;38.49;24.48
27587;BME280;15019;49.002;8.420;2022-08-04T12:44:21;99850.63;;;38.21;22.87
27587;BME280;15019;49.002;8.420;2022-08-04T12:46:48;99850.56;;;38.35;21.93
27587;BME280;15019;49.002;8.420;2022-08-04T12:49:14;99845.56;;;38.26;23.60
27587;BME280;15019;49.002;8.420;2022-08-04T12:51:43;99843.72;;;38.47;21.67
27587;BME280;15019;49.002;8.420;2022-08-04T12:54:09;99834.75;;;38.06;23.81
27587;BME280;15019;49.002;8.420;2022-08-04T12:56:35;99844.66;;;38.12;24.35
27587;BME280;15019;49.002;8.420;2022-08-04T12:59:06;99837.09;;;37.94;23.16
27587;BME280;15019;49.002;8.420;2022-08-04T13:01:32;99840.16;;;37.77;23.14
27587;BME280;15019;49.002;8.420;2022-08-04T13:04:21;99836.56;;;37.84;24.41
27587;BME280;15019;49.002;8.420;2022-08-04T13:07:00;99830.19;;;38.15;25.11
27587;BME280;15019;49.002;8.420;2022-08-04T13:09:31;99821.38;;;38.07;23.26
27587;BME280;15019;49.002;8.420;2022-08-04T13:12:13;99820.69;;;37.84;24.80
27587;BME280;15019;49.002;8.420;2022-08-04T13:14:40;99822.84;;;37.95;22.77
27587;BME280;15019;49.002;8.420;2022-08-04T13:17:06;99814.16;;;37.80;23.67
27587;BME280;15019;49.002;8.420;2022-08-04T13:19:31;99822.69;;;38.18;24.04
27587;BME280;15019;49.002;8.420;2022-08-04T13:21:57;99807.09;;;37.87;25.31
27587;BME280;15019;49.002;8.420;2022-08-04T13:24:23;99797.56;;;37.57;23.53
27587;BME280;15019;49.002;8.420;2022-08-04T13:26:58;99800.16;;;37.86;22.58
27587;BME280;15019;49.002;8.420;2022-08-04T13:29:33;99791.97;;;37.81;23.95
27587;BME280;15019;49.002;8.420;2022-08-04T13:31:59;99786.09;;;37.50;22.96
27587;BME280;15019;49.002;8.420;2022-08-04T13:34:26;99785.19;;;37.43;22.72
27587;BME280;15019;49.002;8.420;2022-08-04T13:36:54;99786.63;;;37.60;23.18
27587;BME280;15019;49.002;8.420;2022-08-04T13:39:21;99774.94;;;37.69;24.90
27587;BME280;15019;49.002;8.420;2022-08-04T13:41:49;99779.16;;;37.85;23.30
27587;BME280;15019;49.002;8.420;2022-08-04T13:44:19;99775.44;;;37.79;23.16
27587;BME280;15019;49.002;8.420;2022-08-04T13:46:52;99769.47;;;37.56;21.56
27587;BME280;15019;49.002;8.420;2022-08-04T13:49:18;99772.22;;;37.48;22.11
27587;BME280;15019;49.002;8.420;2022-08-04T13:51:58;99773.38;;;37.60;21.83
27587;BME280;15019;49.002;8.420;2022-08-04T13:54:24;99766.53;;;37.51;22.59
27587;BME280;15019;49.002;8.420;2022-08-04T13:56:54;99760.34;;;37.58;23.06
27587;BME280;15019;49.002;8.420;2022-08-04T13:59:25;99755.50;;;37.62;23.28
27587;BME280;15019;49.002;8.420;2022-08-04T14:02:03;99760.88;;;37.54;22.25
27587;BME280;15019;49.002;8.420;2022-08-04T14:04:33;99763.97;;;37.72;22.49
27587;BME280;15019;49.002;8.420;2022-08-04T14:07:09;99759.06;;;37.69;22.02
27587;BME280;15019;49.002;8.420;2022-08-04T14:09:37;99754.97;;;37.66;23.41
27587;BME280;15019;49.002;8.420;2022-08-04T14:12:09;99754.91;;;37.45;21.63
27587;BME280;15019;49.002;8.420;2022-08-04T14:14:43;99749.94;;;37.57;22.26
27587;BME280;15019;49.002;8.420;2022-08-04T14:17:11;99748.31;;;37.56;21.50
27587;BME280;15019;49.002;8.420;2022-08-04T14:25:05;99738.25;;;37.66;21.95
27587;BME280;15019;49.002;8.420;2022-08-04T14:27:53;99738.25;;;37.66;21.28
27587;BME280;15019;49.002;8.420;2022-08-04T14:32:54;99731.22;;;37.58;22.15
27587;BME280;15019;49.002;8.420;2022-08-04T14:35:20;99732.50;;;37.62;21.47
27587;BME280;15019;49.002;8.420;2022-08-04T14:37:56;99730.69;;;37.63;20.66
27587;BME280;15019;49.002;8.420;2022-08-04T14:40:29;99729.41;;;37.59;21.31
27587;BME280;15019;49.002;8.420;2022-08-04T14:42:56;99719.84;;;37.58;22.08
27587;BME280;15019;49.002;8.420;2022-08-04T14:45:35;99727.50;;;37.53;21.09
27587;BME280;15019;49.002;8.420;2022-08-04T14:48:05;99715.81;;;37.62;19.83
27587;BME280;15019;49.002;8.420;2022-08-04T14:50:40;99715.63;;;37.63;20.65
27587;BME280;15019;49.002;8.420;2022-08-04T14:53:17;99721.19;;;37.54;21.24
27587;BME280;15019;49.002;8.420;2022-08-04T14:55:45;99709.97;;;37.52;21.96
27587;BME280;15019;49.002;8.420;2022-08-04T14:58:23;99720.06;;;37.42;20.64
27587;BME280;15019;49.002;8.420;2022-08-04T15:00:54;99707.81;;;37.41;20.85
27587;BME280;15019;49.002;8.420;2022-08-04T15:03:20;99711.50;;;37.40;19.75
27587;BME280;15019;49.002;8.420;2022-08-04T15:05:46;99714.41;;;37.45;21.03
27587;BME280;15019;49.002;8.420;2022-08-04T15:08:12;99706.78;;;37.35;21.58
27587;BME280;15019;49.002;8.420;2022-08-04T15:10:38;99702.78;;;37.24;20.71
27587;BME280;15019;49.002;8.420;2022-08-04T15:13:03;99704.53;;;37.17;19.45
27587;BME280;15019;49.002;8.420;2022-08-04T15:15:29;99703.00;;;37.08;20.36
27587;BME280;15019;49.002;8.420;2022-08-04T15:17:54;99701.34;;;37.07;20.92
27587;BME280;15019;49.002;8.420;2022-08-04T15:20:20;99700.94;;;37.10;20.61
27587;BME280;15019;49.002;8.420;2022-08-04T15:22:46;99696.63;;;37.17;19.71
27587;BME280;15019;49.002;8.420;2022-08-04T15:25:11;99697.31;;;37.11;20.61
27587;BME280;15019;49.002;8.420;2022-08-04T15:27:39;99697.69;;;37.08;20.81
27587;BME280;15019;49.002;8.420;2022-08-04T15:30:08;99697.13;;;36.98;19.41
27587;BME280;15019;49.002;8.420;2022-08-04T15:32:40;99695.97;;;37.00;18.72
27587;BME280;15019;49.002;8.420;2022-08-04T15:35:11;99697.53;;;36.95;18.88
27587;BME280;15019;49.002;8.420;2022-08-04T15:38:11;99692.59;;;36.92;19.70
27587;BME280;15019;49.002;8.420;2022-08-04T15:41:04;99698.25;;;36.89;19.03
27587;BME280;15019;49.002;8.420;2022-08-04T15:49:22;99686.66;;;37.19;20.09
27587;BME280;15019;49.002;8.420;2022-08-04T15:52:01;99688.59;;;36.96;20.14
27587;BME280;15019;49.002;8.420;2022-08-04T15:54:27;99686.84;;;36.88;19.70
27587;BME280;15019;49.002;8.420;2022-08-04T15:56:52;99685.16;;;36.81;19.98
27587;BME280;15019;49.002;8.420;2022-08-04T16:07:56;99674.22;;;36.54;21.41
27587;BME280;15019;49.002;8.420;2022-08-04T16:12:58;99665.63;;;36.52;21.94
27587;BME280;15019;49.002;8.420;2022-08-04T16:15:56;99661.25;;;36.45;21.51
27587;BME280;15019;49.002;8.420;2022-08-04T16:20:50;99662.72;;;36.47;19.75
27587;BME280;15019;49.002;8.420;2022-08-04T16:23:46;99665.97;;;36.35;20.13
27587;BME280;15019;49.002;8.420;2022-08-04T16:32:22;99660.47;;;36.44;19.49
27587;BME280;15019;49.002;8.420;2022-08-04T16:34:52;99655.25;;;36.36;20.24
27587;BME280;15019;49.002;8.420;2022-08-04T16:37:18;99651.06;;;36.27;20.96
27587;BME280;15019;49.002;8.420;2022-08-04T16:39:45;99654.09;;;36.16;19.83
27587;BME280;15019;49.002;8.420;2022-08-04T16:50:20;99648.72;;;36.09;21.41
27587;BME280;15019;49.002;8.420;2022-08-04T16:52:52;99643.25;;;35.96;21.37
27587;BME280;15019;49.002;8.420;2022-08-04T16:55:23;99643.50;;;35.86;22.54
27587;BME280;15019;49.002;8.420;2022-08-04T16:57:52;99644.22;;;35.80;22.30
27587;BME280;15019;49.002;8.420;2022-08-04T17:00:39;99640.34;;;35.68;23.25
27587;BME280;15019;49.002;8.420;2022-08-04T17:03:05;99645.03;;;35.58;22.31
27587;BME280;15019;49.002;8.420;2022-08-04T17:05:31;99638.34;;;35.70;23.07